Time;durP1;ratioP1;P1;durP2;ratioP2;P2;SDS_P1;SDS_P2;PMS_P1;PMS_P2;Temp;Humidity;BMP_temperature;BMP_pressure;BME280_temperature;BME280_humidity;BME280_pressure;Samples;Min_cycle;Max_cycle;Signal;HPM_P1;HPM_P2
2022/08/26 00:01:10;;;;;;;;;19.00;15.67;;;;;22.01;99.46;99298.22;6311746;20;3562846;-51
2022/08/26 00:03:39;;;;;;;;;18.50;16.50;;;;;21.97;99.32;99305.06;6305580;20;2827391;-52
2022/08/26 00:06:09;;;;;;;;;18.00;15.00;;;;;21.92;99.14;99297.38;6279592;20;2819198;-48
2022/08/26 00:08:42;;;;;;;;;17.50;16.00;;;;;21.98;99.29;99298.56;6280876;20;2831504;-49
2022/08/26 00:11:14;;;;;;;;;15.67;14.00;;;;;22.00;99.30;99295.66;6285051;20;3540938;-51
2022/08/26 00:13:55;;;;;;;;;14.00;14.00;;;;;21.98;99.21;99301.28;6307689;20;2806550;-49
2022/08/26 00:16:26;;;;;;;;;15.33;15.00;;;;;21.93;99.62;99295.50;6275579;20;3530442;-49
2022/08/26 00:18:56;;;;;;;;;17.00;14.00;;;;;21.85;99.42;99290.06;6278929;20;2823266;-50
2022/08/26 00:21:25;;;;;;;;;21.00;18.00;;;;;21.80;99.74;99292.47;6276081;20;2483660;-48
2022/08/26 00:23:54;;;;;;;;;18.67;16.33;;;;;21.82;100.00;99290.44;6308575;20;3555458;-54
2022/08/26 00:26:24;;;;;;;;;20.00;17.00;;;;;21.73;100.00;99295.09;6276400;20;2834756;-51
2022/08/26 00:28:57;;;;;;;;;18.67;15.67;;;;;21.66;100.00;99292.19;6308239;20;2834649;-47
2022/08/26 00:31:25;;;;;;;;;19.33;19.33;;;;;21.57;100.00;99286.94;6313004;20;3561714;-47
2022/08/26 00:33:54;;;;;;;;;15.33;14.67;;;;;21.38;100.00;99293.63;6273527;20;3539856;-48
2022/08/26 00:36:23;;;;;;;;;17.00;14.00;;;;;21.35;100.00;99289.31;6277608;20;3532560;-46
2022/08/26 00:38:58;;;;;;;;;16.00;16.00;;;;;21.34;100.00;99290.34;6276223;20;2827338;-48
2022/08/26 00:41:27;;;;;;;;;20.00;16.33;;;;;21.25;100.00;99289.53;6281490;20;3568975;-48
2022/08/26 00:43:56;;;;;;;;;17.00;17.00;;;;;21.02;100.00;99291.25;6273151;20;2831532;-47
2022/08/26 00:46:30;;;;;;;;;19.67;18.00;;;;;21.20;100.00;99294.66;6282250;20;3571193;-48
2022/08/26 00:49:37;;;;;;;;;22.00;18.67;;;;;21.14;100.00;99284.41;6278108;20;2852466;-49
2022/08/26 00:52:15;;;;;;;;;18.00;16.50;;;;;21.13;100.00;99290.91;6305632;20;2837937;-47
2022/08/26 00:55:21;;;;;;;;;16.00;15.00;;;;;20.98;100.00;99287.16;6276740;20;2821187;-49
2022/08/26 00:57:51;;;;;;;;;19.67;18.33;;;;;21.03;100.00;99285.59;6273268;20;2846194;-47
2022/08/26 01:00:27;;;;;;;;;20.33;18.67;;;;;21.16;100.00;99290.56;6305693;20;3569036;-47
2022/08/26 01:02:59;;;;;;;;;18.00;16.00;;;;;21.08;100.00;99284.25;6275408;20;2831554;-46
2022/08/26 01:05:28;;;;;;;;;17.33;17.33;;;;;21.01;100.00;99282.22;6278692;20;3573171;-46
2022/08/26 01:07:57;;;;;;;;;20.67;19.00;;;;;20.90;100.00;99281.69;6276643;20;3572266;-48
2022/08/26 01:10:30;;;;;;;;;19.50;17.00;;;;;20.89;100.00;99288.19;6273226;20;2843999;-47
2022/08/26 01:13:08;;;;;;;;;20.67;18.67;;;;;20.97;100.00;99286.31;6278359;20;3575297;-47
2022/08/26 01:15:50;;;;;;;;;20.00;17.50;;;;;21.13;100.00;99290.91;6271117;20;2842027;-49
2022/08/26 01:18:19;;;;;;;;;17.00;16.00;;;;;21.01;100.00;99293.13;6274262;20;2827377;-46
2022/08/26 01:21:23;;;;;;;;;22.50;21.00;;;;;20.84;100.00;99296.88;6273629;20;2837817;-49
2022/08/26 01:23:53;;;;;;;;;19.00;19.00;;;;;20.68;100.00;99302.34;6271778;20;2829514;-48
2022/08/26 01:26:35;;;;;;;;;36.00;32.00;;;;;20.62;100.00;99303.88;6280953;20;3607519;-48
2022/08/26 01:29:07;;;;;;;;;19.67;17.67;;;;;20.48;100.00;99301.75;6284802;20;3575230;-46
2022/08/26 01:31:43;;;;;;;;;30.33;26.33;;;;;20.70;100.00;99305.75;6281701;20;3600280;-50
2022/08/26 01:34:18;;;;;;;;;22.33;21.33;;;;;20.51;100.00;99301.41;6281610;20;3574215;-47
2022/08/26 01:36:50;;;;;;;;;19.33;19.33;;;;;20.35;100.00;99297.66;6281502;20;3570289;-51
2022/08/26 01:39:20;;;;;;;;;19.00;19.00;;;;;20.32;100.00;99292.50;6278573;20;3563986;-48
2022/08/26 01:41:55;;;;;;;;;20.67;19.33;;;;;20.38;100.00;99291.00;6280621;20;3556505;-47
2022/08/26 01:44:31;;;;;;;;;20.00;18.67;;;;;20.23;100.00;99298.13;6281302;20;3571100;-46
2022/08/26 01:47:01;;;;;;;;;16.50;16.50;;;;;20.24;100.00;99294.38;6276854;20;2832692;-49
2022/08/26 01:49:35;;;;;;;;;20.33;18.33;;;;;20.42;100.00;99295.09;6272549;20;2836798;-48
2022/08/26 01:52:07;;;;;;;;;22.33;18.00;;;;;20.36;100.00;99299.34;6311459;20;3568979;-48
2022/08/26 01:54:38;;;;;;;;;20.00;17.00;;;;;20.34;100.00;99289.63;6283744;20;3569059;-46
2022/08/26 01:57:07;;;;;;;;;25.00;19.00;;;;;20.69;100.00;99288.50;6277545;20;2835709;-52
2022/08/26 01:59:38;;;;;;;;;20.33;16.33;;;;;20.50;100.00;99294.25;6274623;20;2833840;-47
2022/08/26 02:02:06;;;;;;;;;21.00;18.00;;;;;20.54;100.00;99291.06;6317312;20;3557575;-51
2022/08/26 02:04:48;;;;;;;;;19.33;17.67;;;;;20.24;100.00;99284.31;6273423;20;2844265;-50
2022/08/26 02:07:20;;;;;;;;;17.33;15.67;;;;;20.02;100.00;99279.50;6309251;20;3552731;-47
2022/08/26 02:09:49;;;;;;;;;21.00;19.33;;;;;20.16;100.00;99276.09;6312905;20;3577352;-47
2022/08/26 02:12:19;;;;;;;;;22.00;19.00;;;;;20.11;100.00;99279.31;6281677;20;2844001;-47
2022/08/26 02:14:55;;;;;;;;;18.33;17.00;;;;;20.05;100.00;99273.69;6305440;20;2838273;-48
2022/08/26 02:17:39;;;;;;;;;21.67;18.67;;;;;20.01;100.00;99277.75;6309621;20;3571113;-46
2022/08/26 02:20:13;;;;;;;;;19.00;17.67;;;;;20.17;100.00;99283.28;6274521;20;3575555;-45
2022/08/26 02:22:44;;;;;;;;;21.00;21.00;;;;;20.02;100.00;99274.03;6275402;20;3573191;-47
2022/08/26 02:25:45;;;;;;;;;22.33;21.00;;;;;19.87;100.00;99271.91;6278652;20;3581504;-47
2022/08/26 02:28:16;;;;;;;;;20.00;18.00;;;;;20.22;100.00;99274.59;6281171;20;2833617;-46
2022/08/26 02:30:47;;;;;;;;;19.00;18.67;;;;;19.95;100.00;99271.94;6318908;20;3571053;-48
2022/08/26 02:33:18;;;;;;;;;19.33;17.00;;;;;19.79;100.00;99280.06;6286686;20;3573182;-47
2022/08/26 02:35:46;;;;;;;;;20.33;20.33;;;;;19.79;100.00;99266.44;6281590;20;3576449;-46
2022/08/26 02:38:15;;;;;;;;;21.50;16.00;;;;;19.95;100.00;99268.38;6278281;20;2830606;-49
2022/08/26 02:40:45;;;;;;;;;22.67;18.67;;;;;19.83;100.00;99269.72;6279407;20;2837922;-48
2022/08/26 02:43:15;;;;;;;;;22.50;19.00;;;;;19.89;100.00;99274.50;6311947;20;2842023;-47
2022/08/26 02:45:45;;;;;;;;;21.00;18.67;;;;;19.88;100.00;99276.38;6283186;20;3572202;-52
2022/08/26 02:48:20;;;;;;;;;21.00;19.33;;;;;19.75;100.00;99273.25;6279813;20;3565939;-47
2022/08/26 02:50:48;;;;;;;;;12.00;12.00;;;;;19.65;100.00;99276.06;6274175;20;2806528;-48
2022/08/26 02:53:19;;;;;;;;;19.00;18.00;;;;;19.51;100.00;99272.09;6282821;20;3565112;-50
2022/08/26 02:55:52;;;;;;;;;20.33;19.33;;;;;19.70;100.00;99283.78;6281308;20;3562895;-45
2022/08/26 02:58:22;;;;;;;;;27.00;22.00;;;;;19.53;100.00;99282.78;6277930;20;2831704;-45
2022/08/26 03:00:52;;;;;;;;;23.00;21.00;;;;;19.41;100.00;99271.34;6281827;20;2834676;-46
2022/08/26 03:03:21;;;;;;;;;20.50;17.50;;;;;19.57;100.00;99283.34;6281165;20;2483602;-49
2022/08/26 03:05:52;;;;;;;;;19.00;18.00;;;;;19.65;100.00;99283.38;6280074;20;3561694;-48
2022/08/26 03:08:21;;;;;;;;;21.00;18.50;;;;;19.65;100.00;99277.94;6276731;20;2837789;-47
2022/08/26 03:10:50;;;;;;;;;20.50;18.50;;;;;19.56;100.00;99278.91;6278155;20;2842071;-49
2022/08/26 03:13:19;;;;;;;;;21.50;19.00;;;;;19.48;100.00;99279.69;6280846;20;2839938;-48
2022/08/26 03:15:47;;;;;;;;;22.33;19.00;;;;;19.38;100.00;99278.97;6276870;20;3564962;-48
2022/08/26 03:18:16;;;;;;;;;19.33;17.00;;;;;19.41;100.00;99276.78;6281674;20;3560659;-47
2022/08/26 03:20:47;;;;;;;;;21.00;18.33;;;;;19.60;100.00;99272.97;6279595;20;3566021;-46
2022/08/26 03:23:17;;;;;;;;;20.00;19.00;;;;;19.67;100.00;99270.50;6278437;20;2830535;-49
2022/08/26 03:25:50;;;;;;;;;19.50;17.00;;;;;19.53;100.00;99264.56;6308743;20;2828532;-46
2022/08/26 03:28:19;;;;;;;;;21.50;20.50;;;;;19.56;100.00;99274.28;6280505;20;2831723;-47
2022/08/26 03:30:48;;;;;;;;;21.33;19.00;;;;;19.68;100.00;99272.19;6272001;20;3569119;-47
2022/08/26 03:33:17;;;;;;;;;20.00;16.00;;;;;19.60;100.00;99274.84;6275047;20;2825280;-50
2022/08/26 03:35:47;;;;;;;;;18.33;18.00;;;;;19.82;100.00;99273.44;6285238;20;3557668;-50
2022/08/26 03:38:23;;;;;;;;;21.50;19.50;;;;;19.90;100.00;99265.28;6278052;20;2846078;-51
2022/08/26 03:40:52;;;;;;;;;18.50;17.00;;;;;19.84;100.00;99264.09;6277735;20;2835746;-46
2022/08/26 03:43:25;;;;;;;;;20.00;20.00;;;;;19.87;100.00;99269.19;6277704;20;3576429;-45
2022/08/26 03:45:54;;;;;;;;;22.67;19.67;;;;;19.96;100.00;99264.66;6280298;20;3574722;-48
2022/08/26 03:48:22;;;;;;;;;20.00;18.00;;;;;19.65;100.00;99272.50;6272691;20;3563833;-48
2022/08/26 03:50:52;;;;;;;;;22.67;20.33;;;;;19.62;100.00;99272.81;6281854;20;3567077;-48
2022/08/26 03:53:20;;;;;;;;;21.00;19.00;;;;;19.64;100.00;99268.03;6278762;20;3565888;-50
2022/08/26 03:55:49;;;;;;;;;18.33;17.33;;;;;19.75;100.00;99262.34;6276573;20;3559649;-62
2022/08/26 03:58:23;;;;;;;;;17.00;17.00;;;;;19.53;100.00;99264.56;6277235;20;2834746;-63
2022/08/26 04:00:51;;;;;;;;;19.00;18.00;;;;;19.49;100.00;99259.66;6280188;20;3570080;-63
2022/08/26 04:06:12;;;;;;;;;23.00;18.50;;;;;19.88;100.00;99257.31;6273064;20;2459150;-62
2022/08/26 04:08:41;;;;;;;;;23.50;20.50;;;;;19.61;100.00;99249.31;6280052;20;2841057;-63
2022/08/26 04:11:21;;;;;;;;;18.33;18.00;;;;;19.60;100.00;99261.22;6280384;20;2837934;-63
2022/08/26 04:13:51;;;;;;;;;20.33;20.33;;;;;19.63;100.00;99260.91;6312035;20;3567967;-63
2022/08/26 04:16:20;;;;;;;;;23.67;22.33;;;;;19.66;100.00;99264.16;6276082;20;3579634;-63
2022/08/26 04:18:50;;;;;;;;;21.33;19.33;;;;;19.67;100.00;99256.88;6313669;20;3569011;-63
2022/08/26 04:21:19;;;;;;;;;19.00;19.00;;;;;19.62;100.00;99268.22;6273719;20;2833638;-62
2022/08/26 04:23:49;;;;;;;;;21.00;21.00;;;;;19.62;100.00;99262.78;6281508;20;3576411;-63
2022/08/26 04:26:20;;;;;;;;;22.00;22.00;;;;;19.66;100.00;99263.28;6274985;20;2844213;-64
2022/08/26 04:28:54;;;;;;;;;25.00;22.00;;;;;19.81;100.00;99264.41;6271600;20;3581520;-63
2022/08/26 04:31:25;;;;;;;;;25.00;22.50;;;;;19.90;100.00;99257.97;6279785;20;2844188;-63
2022/08/26 04:33:58;;;;;;;;;22.67;22.67;;;;;19.94;100.00;99256.63;6311738;20;3586682;-63
2022/08/26 04:36:27;;;;;;;;;20.00;20.00;;;;;19.95;100.00;99258.31;6275404;20;2840003;-63
2022/08/26 04:38:59;;;;;;;;;24.33;19.33;;;;;20.09;100.00;99258.69;6280159;20;3584852;-63
2022/08/26 04:41:30;;;;;;;;;24.00;21.00;;;;;20.02;100.00;99260.41;6280830;20;3581634;-63
2022/08/26 04:44:00;;;;;;;;;23.67;22.00;;;;;20.18;100.00;99257.72;6282499;20;3571089;-63
2022/08/26 04:46:29;;;;;;;;;21.67;21.67;;;;;20.31;100.00;99259.97;6276487;20;3579440;-63
2022/08/26 04:48:58;;;;;;;;;24.00;23.00;;;;;20.37;100.00;99262.84;6277837;20;2846138;-63
2022/08/26 04:51:27;;;;;;;;;20.00;20.00;;;;;20.46;100.00;99263.75;6306770;20;3581548;-63
2022/08/26 04:53:58;;;;;;;;;20.00;19.67;;;;;20.67;100.00;99262.41;6278066;20;3577335;-63
2022/08/26 04:56:35;;;;;;;;;21.00;18.67;;;;;21.09;100.00;99254.06;6272260;20;3579401;-63
2022/08/26 04:59:09;;;;;;;;;22.00;21.00;;;;;21.62;97.22;99257.22;6276952;20;2835749;-63
2022/08/26 05:01:50;;;;;;;;;17.67;16.67;;;;;21.91;96.24;99262.91;6309285;20;3566890;-63
2022/08/26 05:04:20;;;;;;;;;21.00;17.00;;;;;21.30;98.72;99258.09;6280266;20;2828380;-63
2022/08/26 05:06:50;;;;;;;;;20.00;16.00;;;;;21.48;98.38;99256.03;6281966;20;3566969;-63
2022/08/26 05:09:20;;;;;;;;;12.67;12.00;;;;;22.42;92.75;99265.19;6269554;20;3518102;-63
2022/08/26 05:11:49;;;;;;;;;19.00;16.00;;;;;22.63;89.87;99264.53;6309955;20;2821124;-63
2022/08/26 05:14:22;;;;;;;;;20.00;17.00;;;;;21.99;94.20;99258.44;6281483;20;2837745;-63
2022/08/26 05:16:51;;;;;;;;;18.33;16.00;;;;;22.48;92.87;99260.88;6281108;20;3560779;-63
2022/08/26 05:19:23;;;;;;;;;18.00;17.00;;;;;22.37;92.64;99261.31;6280250;20;2841964;-63
2022/08/26 05:21:55;;;;;;;;;17.33;16.00;;;;;22.31;91.65;99265.63;6314522;20;3561053;-63
2022/08/26 05:24:24;;;;;;;;;22.00;19.00;;;;;22.53;92.93;99272.97;6279473;20;2831497;-63
2022/08/26 05:26:54;;;;;;;;;19.00;18.33;;;;;23.21;87.25;99271.25;6309905;20;3577412;-63
2022/08/26 05:29:24;;;;;;;;;15.33;14.67;;;;;22.91;88.66;99270.31;6285043;20;3536727;-64
2022/08/26 05:31:52;;;;;;;;;21.67;18.67;;;;;22.87;88.94;99271.72;6315278;20;3566922;-62
2022/08/26 05:34:23;;;;;;;;;19.67;17.00;;;;;24.29;82.90;99282.69;6279071;20;3555473;-62
2022/08/26 05:36:58;;;;;;;;;18.00;15.67;;;;;25.43;76.55;99282.78;6275703;20;3557783;-61
2022/08/26 05:39:26;;;;;;;;;19.33;15.00;;;;;24.42;79.53;99282.00;6281907;20;3558560;-63
2022/08/26 05:41:55;;;;;;;;;17.33;17.33;;;;;23.58;83.97;99276.88;6283478;20;3581472;-63
2022/08/26 05:44:24;;;;;;;;;18.50;15.50;;;;;23.60;84.29;99283.03;6283228;20;2823284;-63
2022/08/26 05:46:53;;;;;;;;;19.00;18.00;;;;;24.33;82.68;99286.78;6273168;20;2837823;-63
2022/08/26 05:49:21;;;;;;;;;18.00;15.00;;;;;24.04;83.52;99282.16;6279168;20;2813824;-62
2022/08/26 05:51:53;;;;;;;;;16.50;15.00;;;;;24.32;82.24;99283.16;6280117;20;2820081;-62
2022/08/26 05:54:22;;;;;;;;;17.50;15.00;;;;;24.49;79.80;99291.22;6281383;20;2822151;-63
2022/08/26 05:56:51;;;;;;;;;17.33;17.33;;;;;24.94;78.59;99295.47;6280559;20;3571086;-62
2022/08/26 05:59:20;;;;;;;;;18.33;15.67;;;;;25.03;77.85;99293.41;6282913;20;3561669;-61
2022/08/26 06:01:56;;;;;;;;;17.67;14.67;;;;;24.81;78.92;99300.84;6278322;20;3545167;-62
2022/08/26 06:04:25;;;;;;;;;15.00;15.00;;;;;24.72;78.61;99305.59;6313845;20;3536105;-62
2022/08/26 06:06:57;;;;;;;;;16.00;16.00;;;;;26.49;72.71;99305.38;6314954;20;3436694;-62
2022/08/26 06:09:26;;;;;;;;;17.00;15.00;;;;;26.60;71.01;99311.38;6309460;20;2817010;-63
2022/08/26 06:11:57;;;;;;;;;16.00;15.67;;;;;27.26;68.44;99314.25;6282424;20;3542955;-62
2022/08/26 06:14:26;;;;;;;;;17.00;14.67;;;;;27.19;67.50;99316.16;6322391;20;3532551;-63
2022/08/26 06:16:56;;;;;;;;;19.00;16.00;;;;;27.38;67.10;99314.44;6313997;20;3562746;-62
2022/08/26 06:19:25;;;;;;;;;18.50;16.00;;;;;26.57;66.75;99318.16;6283181;20;2835685;-62
2022/08/26 06:25:36;;;;;;;;;16.67;12.00;;;;;26.01;68.55;99318.28;6285269;20;3543265;-62
2022/08/26 06:27:38;;;;;;;;;16.67;14.00;;;;;26.34;67.61;99312.94;6320341;20;2798668;-61
2022/08/26 06:30:08;;;;;;;;;18.33;13.67;;;;;27.34;61.50;99308.53;6316846;20;3543969;-61
2022/08/26 06:32:37;;;;;;;;;14.33;11.33;;;;;27.66;59.30;99319.75;6322119;20;3519042;-62
2022/08/26 06:35:07;;;;;;;;;14.50;13.00;;;;;27.91;58.14;99319.06;6318346;20;2795162;-62
2022/08/26 06:37:39;;;;;;;;;11.00;11.00;;;;;27.61;57.33;99318.69;6282471;20;3505826;-62
2022/08/26 06:40:09;;;;;;;;;17.00;13.00;;;;;30.02;51.09;99334.56;6322480;20;3529506;-49
2022/08/26 06:42:39;;;;;;;;;11.00;9.33;;;;;29.79;50.47;99332.47;6321127;20;2483669;-63
2022/08/26 06:45:08;;;;;;;;;12.00;11.00;;;;;30.08;49.59;99333.66;6320683;20;3508549;-63
2022/08/26 06:47:38;;;;;;;;;9.00;6.00;;;;;28.77;50.29;99329.81;6320588;20;2745149;-61
2022/08/26 06:50:07;;;;;;;;;13.00;10.00;;;;;30.31;48.84;99334.91;6319828;20;2792958;-62
2022/08/26 06:52:36;;;;;;;;;15.00;11.67;;;;;33.75;40.94;99353.69;6316735;20;3517986;-62
2022/08/26 06:55:05;;;;;;;;;13.00;10.33;;;;;34.87;38.51;99357.22;6321363;20;3515834;-62
2022/08/26 06:57:35;;;;;;;;;11.00;10.67;;;;;35.31;36.40;99367.44;6312897;20;3512803;-65
2022/08/26 07:00:10;;;;;;;;;12.50;11.50;;;;;34.89;35.49;99363.38;6313204;20;3349404;-65
2022/08/26 07:02:39;;;;;;;;;14.00;11.00;;;;;35.61;35.42;99366.91;6321210;20;3515883;-64
2022/08/26 07:05:14;;;;;;;;;7.00;7.00;;;;;33.68;38.89;99369.75;6320146;20;2734674;-65
2022/08/26 07:07:42;;;;;;;;;16.33;13.33;;;;;30.25;45.99;99346.91;6311912;20;3531528;-63
2022/08/26 07:10:11;;;;;;;;;12.67;10.67;;;;;28.77;49.21;99340.00;6285101;20;3499220;-61
2022/08/26 07:12:39;;;;;;;;;14.67;12.00;;;;;28.60;49.69;99346.06;6289837;20;3534725;-61
2022/08/26 07:15:09;;;;;;;;;11.00;9.50;;;;;28.58;49.63;99342.66;6321660;20;2491920;-61
2022/08/26 07:17:38;;;;;;;;;10.00;10.00;;;;;28.26;50.99;99338.94;6314768;20;2780691;-56
2022/08/26 07:20:10;;;;;;;;;10.00;8.67;;;;;27.68;50.83;99328.66;6315577;20;3481622;-57
2022/08/26 07:22:38;;;;;;;;;11.00;11.00;;;;;28.20;50.18;99340.66;6313786;20;3506486;-56
2022/08/26 07:25:10;;;;;;;;;10.00;10.00;;;;;33.70;37.02;99355.56;6316807;20;3512706;-57
2022/08/26 07:27:38;;;;;;;;;11.00;9.00;;;;;35.73;32.94;99361.13;6280396;20;3497133;-54
2022/08/26 07:30:08;;;;;;;;;14.00;11.00;;;;;35.56;32.24;99350.91;6285236;20;3505818;-55
2022/08/26 07:32:42;;;;;;;;;9.33;8.33;;;;;35.31;32.80;99359.06;6323166;20;2757688;-55
2022/08/26 07:35:10;;;;;;;;;10.00;10.00;;;;;30.16;42.06;99336.09;6318425;20;3507565;-56
2022/08/26 07:37:39;;;;;;;;;9.00;9.00;;;;;29.35;44.07;99330.72;6311453;20;3471063;-57
2022/08/26 07:40:09;;;;;;;;;14.33;12.67;;;;;29.01;45.46;99328.16;6317380;20;3509598;-57
2022/08/26 07:42:38;;;;;;;;;12.33;10.00;;;;;29.06;43.79;99317.31;6284971;20;3507536;-57
2022/08/26 07:45:08;;;;;;;;;13.00;11.67;;;;;29.24;43.78;99326.75;6312750;20;3504390;-56
2022/08/26 07:47:36;;;;;;;;;11.67;10.00;;;;;29.46;44.36;99322.50;6312163;20;3513787;-56
2022/08/26 07:50:06;;;;;;;;;11.00;11.00;;;;;29.32;43.85;99318.19;6318993;20;3515895;-55
2022/08/26 07:52:37;;;;;;;;;12.00;10.67;;;;;29.57;44.62;99322.84;6316045;20;3511722;-54
2022/08/26 07:55:09;;;;;;;;;13.33;10.67;;;;;29.31;42.68;99324.78;6316880;20;3513935;-53
2022/08/26 07:57:38;;;;;;;;;8.33;7.33;;;;;29.50;43.12;99329.28;6322591;20;2743996;-54
2022/08/26 08:00:14;;;;;;;;;10.67;9.67;;;;;30.18;42.95;99319.28;6318406;20;3502324;-56
2022/08/26 08:02:43;;;;;;;;;9.67;9.67;;;;;30.23;41.99;99322.22;6312082;20;3489222;-54
2022/08/26 08:05:18;;;;;;;;;9.33;9.33;;;;;29.80;41.76;99328.63;6311183;20;3479634;-55
2022/08/26 08:07:48;;;;;;;;;12.67;10.33;;;;;29.54;41.68;99319.50;6311350;20;3513854;-59
2022/08/26 08:10:38;;;;;;;;;10.67;9.67;;;;;30.29;42.07;99318.53;6280196;20;3493098;-58
2022/08/26 08:13:07;;;;;;;;;11.67;11.67;;;;;30.66;40.80;99323.16;6318057;20;3516013;-59
2022/08/26 08:15:38;;;;;;;;;14.33;9.67;;;;;30.50;40.16;99316.34;6315680;20;2487776;-58
2022/08/26 08:18:07;;;;;;;;;11.00;11.00;;;;;30.34;40.55;99323.38;6310983;20;3529408;-58
2022/08/26 08:20:43;;;;;;;;;12.33;9.67;;;;;30.96;40.97;99303.75;6287864;20;2779464;-57
2022/08/26 08:23:32;;;;;;;;;10.67;10.33;;;;;30.71;39.65;99313.06;6310410;20;3516018;-59
2022/08/26 08:26:06;;;;;;;;;16.67;9.00;;;;;30.80;38.65;99311.63;6282075;20;3522095;-59
2022/08/26 08:28:37;;;;;;;;;14.33;10.33;;;;;30.57;38.39;99309.63;6287566;20;3512988;-63
2022/08/26 08:31:09;;;;;;;;;11.67;9.67;;;;;31.38;38.50;99309.31;6313618;20;3504402;-63
2022/08/26 08:33:37;;;;;;;;;12.00;12.00;;;;;31.05;37.37;99310.69;6317877;20;2779417;-64
2022/08/26 08:36:06;;;;;;;;;11.67;10.00;;;;;31.26;36.99;99315.66;6311238;20;3510635;-63
2022/08/26 08:38:36;;;;;;;;;12.00;10.00;;;;;31.08;36.67;99310.19;6310672;20;3515998;-60
2022/08/26 08:41:05;;;;;;;;;12.00;10.00;;;;;31.45;37.34;99298.94;6312750;20;3510932;-59
2022/08/26 08:43:45;;;;;;;;;11.00;11.00;;;;;31.95;36.48;99303.19;6314736;20;3510670;-60
2022/08/26 08:46:18;;;;;;;;;9.00;9.00;;;;;32.11;36.16;99303.28;6278705;20;2748265;-61
2022/08/26 08:48:55;;;;;;;;;8.00;7.67;;;;;31.87;36.59;99298.81;6313913;20;2756569;-59
2022/08/26 08:51:57;;;;;;;;;8.33;8.33;;;;;31.87;35.25;99288.56;6313880;20;2750306;-58
2022/08/26 08:54:27;;;;;;;;;9.00;9.00;;;;;31.83;34.77;99289.28;6311287;20;2745051;-53
2022/08/26 08:57:37;;;;;;;;;14.00;11.00;;;;;31.68;35.78;99285.06;6314449;20;3516918;-54
2022/08/26 09:00:16;;;;;;;;;12.00;9.33;;;;;32.22;34.90;99290.44;6310937;20;3502349;-56
2022/08/26 09:03:03;;;;;;;;;11.67;8.67;;;;;31.99;34.38;99285.78;6320984;20;2764972;-60
2022/08/26 09:05:42;;;;;;;;;11.33;9.67;;;;;31.71;34.49;99279.03;6314724;20;2780452;-59
2022/08/26 09:08:26;;;;;;;;;16.33;11.33;;;;;31.88;34.22;99283.84;6311927;20;3516904;-58
2022/08/26 09:10:59;;;;;;;;;13.67;11.67;;;;;32.00;35.17;99281.94;6284264;20;2483606;-59
2022/08/26 09:13:29;;;;;;;;;8.67;8.67;;;;;32.55;34.18;99277.81;6310362;20;2752383;-59
2022/08/26 09:16:24;;;;;;;;;10.33;9.33;;;;;32.57;33.49;99284.81;6319343;20;2765897;-59
2022/08/26 09:19:53;;;;;;;;;10.33;9.33;;;;;32.50;34.05;99280.47;6312274;20;3489930;-60
2022/08/26 09:22:34;;;;;;;;;10.33;9.00;;;;;32.75;33.54;99278.16;6313569;20;2771447;-58
2022/08/26 09:25:11;;;;;;;;;13.67;10.00;;;;;32.80;33.34;99274.66;6313353;20;3500270;-58
2022/08/26 09:27:49;;;;;;;;;11.67;11.00;;;;;33.39;33.49;99277.94;6313577;20;3512749;-61
2022/08/26 09:30:28;;;;;;;;;9.67;8.00;;;;;33.16;32.91;99278.09;6312140;20;3475227;-57
2022/08/26 09:33:09;;;;;;;;;12.00;9.00;;;;;33.22;33.13;99269.56;6311089;20;3499263;-56
2022/08/26 09:35:45;;;;;;;;;8.67;7.00;;;;;33.67;32.38;99273.38;6306684;20;2757608;-57
2022/08/26 09:38:26;;;;;;;;;11.00;9.00;;;;;33.37;32.21;99285.69;6314838;20;3497091;-53
2022/08/26 09:41:25;;;;;;;;;11.00;9.00;;;;;33.19;31.82;99277.59;6316137;20;2483598;-57
2022/08/26 09:44:17;;;;;;;;;10.33;8.67;;;;;33.25;32.15;99276.56;6311275;20;3497135;-61
2022/08/26 09:47:04;;;;;;;;;10.33;9.00;;;;;33.36;32.67;99267.31;6318700;20;2771406;-61
2022/08/26 09:49:37;;;;;;;;;9.33;8.00;;;;;33.84;32.68;99270.56;6315837;20;3467993;-61
2022/08/26 09:52:22;;;;;;;;;8.50;8.00;;;;;33.85;32.25;99269.44;6319222;20;2756609;-61
2022/08/26 09:55:22;;;;;;;;;10.00;8.67;;;;;33.73;30.77;99260.34;6312634;20;3488780;-61
2022/08/26 09:57:54;;;;;;;;;11.00;9.00;;;;;33.90;32.89;99266.72;6290276;20;2769005;-63
2022/08/26 10:00:52;;;;;;;;;7.33;7.33;;;;;33.31;32.82;99266.38;6316602;20;3465884;-58
2022/08/26 10:03:35;;;;;;;;;9.67;9.33;;;;;33.98;31.97;99263.50;6318563;20;3486706;-59
2022/08/26 10:06:16;;;;;;;;;8.67;8.67;;;;;34.16;31.79;99267.13;6311405;20;3461804;-60
2022/08/26 10:08:57;;;;;;;;;13.00;10.33;;;;;33.62;32.66;99259.38;6317447;20;3510972;-59
2022/08/26 10:11:47;;;;;;;;;6.00;6.00;;;;;33.88;31.66;99260.56;6291122;20;2736802;-58
2022/08/26 10:14:28;;;;;;;;;9.00;7.33;;;;;32.90;31.52;99252.59;6313516;20;2741005;-58
2022/08/26 10:17:54;;;;;;;;;11.00;9.67;;;;;33.44;31.59;99257.66;6314320;20;3507521;-60
2022/08/26 10:20:35;;;;;;;;;12.00;9.00;;;;;32.99;33.24;99251.09;6315519;20;3499289;-60
2022/08/26 10:23:16;;;;;;;;;8.67;6.00;;;;;33.51;30.62;99251.94;6314653;20;2741956;-59
2022/08/26 10:25:59;;;;;;;;;8.00;8.00;;;;;32.98;31.15;99243.81;6310080;20;2744169;-61
2022/08/26 10:28:43;;;;;;;;;10.67;10.00;;;;;32.88;32.59;99238.09;6316034;20;3502332;-57
2022/08/26 10:31:58;;;;;;;;;15.00;12.67;;;;;33.47;31.50;99245.19;6320697;20;3524346;-59
2022/08/26 10:34:33;;;;;;;;;10.33;10.33;;;;;33.69;29.86;99237.75;6318646;20;2784623;-59
2022/08/26 10:37:19;;;;;;;;;8.67;7.00;;;;;33.00;30.29;99236.06;6324913;20;2746087;-59
2022/08/26 10:40:06;;;;;;;;;9.00;8.33;;;;;33.49;30.72;99231.84;6313935;20;2759667;-57
2022/08/26 10:42:45;;;;;;;;;11.33;8.67;;;;;33.26;30.58;99224.53;6313619;20;3491090;-54
2022/08/26 10:45:27;;;;;;;;;7.67;6.67;;;;;32.88;30.89;99218.63;6312173;20;3463839;-56
2022/08/26 10:48:10;;;;;;;;;9.00;8.67;;;;;33.49;30.64;99224.34;6319175;20;2744049;-55
2022/08/26 10:50:44;;;;;;;;;10.67;10.00;;;;;34.22;31.74;99213.94;6317825;20;3515851;-57
2022/08/26 10:53:45;;;;;;;;;9.33;9.33;;;;;33.80;30.13;99214.50;6313449;20;3486776;-55
2022/08/26 10:57:14;;;;;;;;;9.00;9.00;;;;;34.05;30.19;99213.16;6325568;20;2765004;-56
2022/08/26 10:59:51;;;;;;;;;9.33;7.33;;;;;33.93;29.79;99209.66;6313209;20;3504483;-54
2022/08/26 11:02:44;;;;;;;;;11.00;9.00;;;;;33.88;30.36;99214.06;6314797;20;3496040;-56
2022/08/26 11:05:22;;;;;;;;;8.00;6.00;;;;;33.65;28.90;99205.94;6311666;20;2748208;-55
2022/08/26 11:07:55;;;;;;;;;8.33;7.00;;;;;33.73;29.14;99205.53;6318631;20;2750270;-54
2022/08/26 11:10:24;;;;;;;;;8.33;6.00;;;;;33.81;30.18;99202.28;6314409;20;2743215;-58
2022/08/26 11:13:02;;;;;;;;;9.67;6.67;;;;;33.85;31.20;99197.88;6315714;20;3477349;-59
2022/08/26 11:15:31;;;;;;;;;9.33;8.33;;;;;33.88;29.59;99196.50;6312120;20;2758676;-58
2022/08/26 11:18:35;;;;;;;;;9.00;7.33;;;;;34.02;29.74;99195.03;6316297;20;2751308;-54
2022/08/26 11:21:50;;;;;;;;;12.33;8.67;;;;;33.79;29.45;99203.66;6312448;20;3492337;-58
2022/08/26 11:24:55;;;;;;;;;10.00;8.00;;;;;34.23;29.11;99196.13;6319815;20;2764154;-55
2022/08/26 11:27:36;;;;;;;;;20.43;19.00;;;;;33.83;28.59;99197.28;6337890;20;3490886;-67
2022/08/26 11:30:35;;;;;;;;;7.33;7.33;;;;;33.43;29.32;99189.19;6294677;20;2748257;-67
2022/08/26 11:33:05;;;;;;;;;8.00;7.67;;;;;33.53;29.43;99180.97;6312952;20;3462770;-64
2022/08/26 11:35:37;;;;;;;;;10.67;7.00;;;;;34.16;27.81;99184.34;6316904;20;2763818;-66
2022/08/26 11:38:27;;;;;;;;;7.67;7.00;;;;;33.99;28.37;99175.19;6310833;20;2747185;-65
2022/08/26 11:41:16;;;;;;;;;9.00;7.00;;;;;34.01;27.96;99179.41;6315713;20;2752446;-64
2022/08/26 11:43:48;;;;;;;;;8.00;7.33;;;;;34.23;28.35;99176.63;6313599;20;2746126;-66